Time;durP1;ratioP1;P1;durP2;ratioP2;P2;SDS_P1;SDS_P2;PMS_P1;PMS_P2;Temp;Humidity;BMP_temperature;BMP_pressure;BME280_temperature;BME280_humidity;BME280_pressure;Samples;Min_cycle;Max_cycle;Signal;HPM_P1;HPM_P2
2023/07/03 00:02:20;;;;;;;;;;;;;;;;;;4936964;29;19942;-91
2023/07/03 00:05:03;;;;;;;;;;;;;;;;;;4959281;28;20452;-91
2023/07/03 00:10:24;;;;;;;;;;;;;;;;;;4950613;28;19930;-91
2023/07/03 00:13:01;;;;;;;;;;;;;;;;;;4941412;29;19977;-90
2023/07/03 00:15:53;;;;;;;;;;;;;;;;;;4947904;28;19938;-91
2023/07/03 00:18:23;;;;;;;;;;;;;;;;;;4951128;28;19949;-90
2023/07/03 00:20:54;;;;;;;;;;;;;;;;;;4946123;28;19930;-92
2023/07/03 00:23:34;;;;;;;;;;;;;;;;;;4939954;29;19949;-90
2023/07/03 00:26:47;;;;;;;;;;;;;;;;;;4940411;29;19934;-90
2023/07/03 00:29:26;;;;;;;;;;;;;;;;;;4940694;28;19927;-91
2023/07/03 00:32:07;;;;;;;;;;;;;;;;;;4928504;29;19931;-91
2023/07/03 00:34:45;;;;;;;;;;;;;;;;;;4930582;28;20321;-91
2023/07/03 00:37:15;;;;;;;;;;;;;;;;;;4944897;28;19926;-91
2023/07/03 00:42:52;;;;;;;;;;;;;;;;;;4917279;29;19927;-91
2023/07/03 00:48:14;;;;;;;;;;;;;;;;;;4934137;29;19938;-91
2023/07/03 00:51:13;;;;;;;;;;;;;;;;;;;;;
2023/07/03 00:54:00;;;;;;;;;;;;;;;;;;4947977;28;19931;-93
2023/07/03 00:56:38;;;;;;;;;;;;;;;;;;4952524;28;19927;-90
2023/07/03 00:59:13;;;;;;;;;;;;;;;;;;4953982;28;19935;-90
2023/07/03 01:01:43;;;;;;;;;;;;;;;;;;4935670;29;19931;-92
2023/07/03 01:04:22;;;;;;;;;;;;;;;;;;4951701;28;19927;-92
2023/07/03 01:07:03;;;;;;;;;;;;;;;;;;4940150;29;19930;-92
2023/07/03 01:10:04;;;;;;;;;;;;;;;;;;4952848;28;19934;-92
2023/07/03 01:15:33;;;;;;;;;;;;;;;;;;4953677;28;19927;-92
2023/07/03 01:18:10;;;;;;;;;;;;;;;;;;4955990;28;20551;-91
2023/07/03 01:20:46;;;;;;;;;;;;;;;;;;4958642;28;19953;-90
2023/07/03 01:23:24;;;;;;;;;;;;;;;;;;4940487;29;19926;-92
2023/07/03 01:26:07;;;;;;;;;;;;;;;;;;4932798;29;20305;-91
2023/07/03 01:28:59;;;;;;;;;;;;;;;;;;4927179;29;19934;-93
2023/07/03 01:31:39;;;;;;;;;;;;;;;;;;4929870;29;19931;-91
2023/07/03 01:34:26;;;;;;;;;;;;;;;;;;4926793;29;19926;-91
2023/07/03 01:37:04;;;;;;;;;;;;;;;;;;4934761;29;19931;-91
2023/07/03 01:39:51;;;;;;;;;;;;;;;;;;4926639;29;19938;-93
2023/07/03 01:42:23;;;;;;;;;;;;;;;;;;4944770;28;19935;-92
2023/07/03 01:45:06;;;;;;;;;;;;;;;;;;4934443;29;19931;-91
2023/07/03 01:47:58;;;;;;;;;;;;;;;;;;4942087;29;20426;-91
2023/07/03 01:50:40;;;;;;;;;;;;;;;;;;4938948;29;19927;-91
2023/07/03 01:53:12;;;;;;;;;;;;;;;;;;4951835;28;19930;-92
2023/07/03 01:55:43;;;;;;;;;;;;;;;;;;4950572;28;19941;-92
2023/07/03 01:58:16;;;;;;;;;;;;;;;;;;4953388;28;19934;-92
2023/07/03 02:00:49;;;;;;;;;;;;;;;;;;4939390;28;19934;-90
2023/07/03 02:03:23;;;;;;;;;;;;;;;;;;4955886;28;19926;-92
2023/07/03 02:06:08;;;;;;;;;;;;;;;;;;4937164;29;19934;-91
2023/07/03 02:08:51;;;;;;;;;;;;;;;;;;4949559;28;19959;-92
2023/07/03 02:11:42;;;;;;;;;;;;;;;;;;4942637;29;20498;-92
2023/07/03 02:14:24;;;;;;;;;;;;;;;;;;4954172;28;19934;-91
2023/07/03 02:17:13;;;;;;;;;;;;;;;;;;4916534;29;19934;-92
2023/07/03 02:20:00;;;;;;;;;;;;;;;;;;4954384;28;19946;-92
2023/07/03 02:22:47;;;;;;;;;;;;;;;;;;4934073;29;19934;-92
2023/07/03 02:25:15;;;;;;;;;;;;;;;;;;4938973;29;19926;-91
2023/07/03 02:28:02;;;;;;;;;;;;;;;;;;4947342;28;19937;-90
2023/07/03 02:30:47;;;;;;;;;;;;;;;;;;4957411;28;20951;-93
2023/07/03 02:33:31;;;;;;;;;;;;;;;;;;4951285;28;19938;-92
2023/07/03 02:36:20;;;;;;;;;;;;;;;;;;4942600;29;19930;-92
2023/07/03 02:39:01;;;;;;;;;;;;;;;;;;4955763;28;19930;-92
2023/07/03 02:41:44;;;;;;;;;;;;;;;;;;4945683;29;20301;-91
2023/07/03 02:44:29;;;;;;;;;;;;;;;;;;4941596;29;20304;-93
2023/07/03 02:47:32;;;;;;;;;;;;;;;;;;4925920;29;19942;-90
2023/07/03 02:53:00;;;;;;;;;;;;;;;;;;4927860;29;19931;-92
2023/07/03 02:55:37;;;;;;;;;;;;;;;;;;4946538;28;19931;-93
2023/07/03 02:58:13;;;;;;;;;;;;;;;;;;4927836;28;20503;-91
2023/07/03 03:01:02;;;;;;;;;;;;;;;;;;4924965;29;19953;-93
2023/07/03 03:04:00;;;;;;;;;;;;;;;;;;4928652;29;19931;-92
2023/07/03 03:07:14;;;;;;;;;;;;;;;;;;4927555;29;19926;-92
2023/07/03 03:10:04;;;;;;;;;;;;;;;;;;4932018;29;19938;-91
2023/07/03 03:13:32;;;;;;;;;;;;;;;;;;;;;
2023/07/03 03:16:02;;;;;;;;;;;;;;;;;;4941543;28;20304;-93
2023/07/03 03:18:48;;;;;;;;;;;;;;;;;;4945325;28;19953;-91
2023/07/03 03:21:27;;;;;;;;;;;;;;;;;;4949687;28;20413;-91
2023/07/03 03:24:02;;;;;;;;;;;;;;;;;;4930792;29;19926;-93
2023/07/03 03:26:36;;;;;;;;;;;;;;;;;;4923343;29;19937;-90
2023/07/03 03:31:58;;;;;;;;;;;;;;;;;;4933272;29;19927;-92
2023/07/03 03:34:45;;;;;;;;;;;;;;;;;;4940288;28;20306;-92
2023/07/03 03:37:47;;;;;;;;;;;;;;;;;;4952034;28;19926;-92
2023/07/03 03:43:35;;;;;;;;;;;;;;;;;;4852357;29;19932;-92
2023/07/03 03:46:24;;;;;;;;;;;;;;;;;;4873007;29;20418;-90
2023/07/03 03:49:15;;;;;;;;;;;;;;;;;;4881298;29;19931;-92
2023/07/03 03:52:32;;;;;;;;;;;;;;;;;;4874587;29;21118;-93
2023/07/03 03:58:15;;;;;;;;;;;;;;;;;;4867741;29;20536;-92
2023/07/03 04:00:46;;;;;;;;;;;;;;;;;;4872220;29;19943;-94
2023/07/03 04:09:38;;;;;;;;;;;;;;;;;;4893812;28;19927;-92
2023/07/03 04:12:25;;;;;;;;;;;;;;;;;;4932381;29;20401;-91
2023/07/03 04:15:06;;;;;;;;;;;;;;;;;;4945307;28;19927;-92
2023/07/03 04:17:50;;;;;;;;;;;;;;;;;;4937497;29;19930;-92
2023/07/03 04:23:24;;;;;;;;;;;;;;;;;;4940714;29;19930;-92
2023/07/03 04:29:10;;;;;;;;;;;;;;;;;;4956501;28;19926;-92
2023/07/03 04:32:06;;;;;;;;;;;;;;;;;;4940622;29;20610;-91
2023/07/03 04:35:00;;;;;;;;;;;;;;;;;;4959974;28;19926;-94
2023/07/03 04:37:53;;;;;;;;;;;;;;;;;;4957070;29;19938;-93
2023/07/03 04:40:40;;;;;;;;;;;;;;;;;;4954530;29;20088;-93
2023/07/03 04:49:29;;;;;;;;;;;;;;;;;;4964832;28;19935;-94
2023/07/03 04:52:27;;;;;;;;;;;;;;;;;;4948189;29;19939;-92
2023/07/03 04:55:08;;;;;;;;;;;;;;;;;;4945431;29;20200;-91
2023/07/03 04:58:01;;;;;;;;;;;;;;;;;;4949258;29;19942;-92
2023/07/03 05:00:58;;;;;;;;;;;;;;;;;;4935653;29;19942;-93
2023/07/03 05:03:43;;;;;;;;;;;;;;;;;;4964121;28;19941;-92
2023/07/03 05:09:15;;;;;;;;;;;;;;;;;;4952602;29;19942;-91
2023/07/03 05:14:43;;;;;;;;;;;;;;;;;;4930300;29;20598;-91
2023/07/03 05:17:20;;;;;;;;;;;;;;;;;;4930186;29;19938;-90
2023/07/03 05:19:48;;;;;;;;;;;;;;;;;;4948823;28;19933;-90
2023/07/03 05:22:18;;;;;;;;;;;;;;;;;;4929823;29;19950;-90
2023/07/03 05:25:09;;;;;;;;;;;;;;;;;;4931497;29;19934;-90
2023/07/03 05:27:45;;;;;;;;;;;;;;;;;;4955159;28;20493;-91
2023/07/03 05:30:15;;;;;;;;;;;;;;;;;;4939481;29;19937;-91
2023/07/03 05:32:51;;;;;;;;;;;;;;;;;;4935004;29;19942;-91
2023/07/03 05:35:27;;;;;;;;;;;;;;;;;;4949177;28;19926;-90
2023/07/03 05:38:11;;;;;;;;;;;;;;;;;;4945017;28;19942;-91
2023/07/03 05:40:50;;;;;;;;;;;;;;;;;;4931303;29;19927;-90
2023/07/03 05:43:29;;;;;;;;;;;;;;;;;;4931342;29;19933;-91
2023/07/03 05:46:00;;;;;;;;;;;;;;;;;;4948038;28;19938;-89
2023/07/03 05:51:10;;;;;;;;;;;;;;;;;;4948421;28;19954;-90
2023/07/03 05:53:45;;;;;;;;;;;;;;;;;;4928447;29;20317;-90
2023/07/03 05:56:13;;;;;;;;;;;;;;;;;;4926452;29;19926;-90
2023/07/03 06:01:46;;;;;;;;;;;;;;;;;;4933118;29;20401;-90
2023/07/03 06:07:01;;;;;;;;;;;;;;;;;;4930796;29;20206;-89
2023/07/03 06:09:43;;;;;;;;;;;;;;;;;;4927160;29;19946;-90
2023/07/03 06:12:12;;;;;;;;;;;;;;;;;;4947403;28;19938;-90
2023/07/03 06:14:40;;;;;;;;;;;;;;;;;;4931506;29;20192;-88
2023/07/03 06:17:13;;;;;;;;;;;;;;;;;;4950185;28;19930;-91
2023/07/03 06:22:50;;;;;;;;;;;;;;;;;;4942794;29;19930;-91
2023/07/03 06:25:22;;;;;;;;;;;;;;;;;;4939228;29;19934;-92
2023/07/03 06:28:08;;;;;;;;;;;;;;;;;;4939949;29;19926;-91
2023/07/03 06:30:45;;;;;;;;;;;;;;;;;;4950825;28;19930;-90
2023/07/03 06:33:16;;;;;;;;;;;;;;;;;;4940084;28;19941;-90
2023/07/03 06:35:54;;;;;;;;;;;;;;;;;;4939809;29;19934;-90
2023/07/03 06:38:30;;;;;;;;;;;;;;;;;;4942589;29;19933;-91
2023/07/03 06:40:58;;;;;;;;;;;;;;;;;;4940785;29;19931;-91
2023/07/03 06:43:35;;;;;;;;;;;;;;;;;;4942803;29;19935;-92
2023/07/03 06:46:22;;;;;;;;;;;;;;;;;;4924159;29;19946;-91
2023/07/03 06:48:50;;;;;;;;;;;;;;;;;;4930655;29;20393;-89
2023/07/03 06:51:17;;;;;;;;;;;;;;;;;;4948077;28;20417;-90
2023/07/03 06:53:45;;;;;;;;;;;;;;;;;;4930254;29;19930;-93
2023/07/03 06:56:15;;;;;;;;;;;;;;;;;;4931259;29;20012;-90
2023/07/03 06:58:57;;;;;;;;;;;;;;;;;;4944888;28;19935;-90
2023/07/03 07:01:25;;;;;;;;;;;;;;;;;;4940966;29;19931;-89
2023/07/03 07:03:52;;;;;;;;;;;;;;;;;;4948041;28;20318;-90
2023/07/03 07:06:21;;;;;;;;;;;;;;;;;;4944253;28;20413;-90
2023/07/03 07:08:59;;;;;;;;;;;;;;;;;;4930053;29;19928;-91
2023/07/03 07:11:34;;;;;;;;;;;;;;;;;;4951499;23;20400;-90
2023/07/03 07:14:20;;;;;;;;;;;;;;;;;;4922129;29;19957;-93
2023/07/03 07:17:14;;;;;;;;;;;;;;;;;;4923453;29;19927;-90
2023/07/03 07:19:42;;;;;;;;;;;;;;;;;;4911369;29;19938;-91
2023/07/03 07:22:19;;;;;;;;;;;;;;;;;;4913438;29;20401;-92
2023/07/03 07:27:39;;;;;;;;;;;;;;;;;;4921873;29;20321;-93
2023/07/03 07:30:20;;;;;;;;;;;;;;;;;;4919437;29;19938;-93
2023/07/03 07:33:24;;;;;;;;;;;;;;;;;;;;;
2023/07/03 07:36:05;;;;;;;;;;;;;;;;;;4907790;29;19927;-91
2023/07/03 07:38:41;;;;;;;;;;;;;;;;;;4929695;29;19946;-92
2023/07/03 07:44:40;;;;;;;;;;;;;;;;;;4904176;29;19934;-89
2023/07/03 07:47:11;;;;;;;;;;;;;;;;;;4892543;29;19934;-90
2023/07/03 07:50:06;;;;;;;;;;;;;;;;;;4916865;29;19931;-91
2023/07/03 07:56:16;;;;;;;;;;;;;;;;;;4913424;29;19958;-90
2023/07/03 08:01:55;;;;;;;;;;;;;;;;;;4902623;29;19942;-91
2023/07/03 08:04:56;;;;;;;;;;;;;;;;;;4903873;29;19935;-88
2023/07/03 08:07:39;;;;;;;;;;;;;;;;;;;;;
2023/07/03 08:20:26;;;;;;;;;;;;;;;;;;4899708;29;19935;-89
2023/07/03 08:23:15;;;;;;;;;;;;;;;;;;4901799;29;20027;-90
2023/07/03 08:28:45;;;;;;;;;;;;;;;;;;4862185;29;20660;-93
2023/07/03 08:37:39;;;;;;;;;;;;;;;;;;4865466;29;19934;-90
2023/07/03 08:40:25;;;;;;;;;;;;;;;;;;4904350;29;20131;-91
2023/07/03 08:43:02;;;;;;;;;;;;;;;;;;4882510;29;19935;-91
2023/07/03 08:45:59;;;;;;;;;;;;;;;;;;4902234;29;19931;-91
2023/07/03 08:49:17;;;;;;;;;;;;;;;;;;4902931;29;19938;-89
2023/07/03 08:51:50;;;;;;;;;;;;;;;;;;4906316;29;19935;-91
2023/07/03 08:54:20;;;;;;;;;;;;;;;;;;4901104;29;19935;-89
2023/07/03 09:00:35;;;;;;;;;;;;;;;;;;4835904;29;19952;-91
2023/07/03 09:03:38;;;;;;;;;;;;;;;;;;4845904;29;19989;-92
2023/07/03 09:15:58;;;;;;;;;;;;;;;;;;4894515;29;19934;-92
2023/07/03 09:18:48;;;;;;;;;;;;;;;;;;4905019;29;20326;-91
2023/07/03 09:21:28;;;;;;;;;;;;;;;;;;4885191;29;19942;-91
2023/07/03 09:23:59;;;;;;;;;;;;;;;;;;4889360;29;20698;-90
2023/07/03 09:26:38;;;;;;;;;;;;;;;;;;4882213;29;19934;-90
2023/07/03 09:29:16;;;;;;;;;;;;;;;;;;4888078;29;19931;-88
2023/07/03 09:34:31;;;;;;;;;;;;;;;;;;4887761;29;19942;-88
2023/07/03 09:37:13;;;;;;;;;;;;;;;;;;4884055;29;19981;-91
2023/07/03 09:39:52;;;;;;;;;;;;;;;;;;4876326;29;19935;-92
2023/07/03 09:42:38;;;;;;;;;;;;;;;;;;4868042;29;19934;-92
2023/07/03 09:45:18;;;;;;;;;;;;;;;;;;4889048;29;19957;-91
2023/07/03 09:47:58;;;;;;;;;;;;;;;;;;4888510;29;19934;-93
2023/07/03 09:53:18;;;;;;;;;;;;;;;;;;4881055;29;19939;-90
2023/07/03 09:55:50;;;;;;;;;;;;;;;;;;4889929;29;19934;-90
2023/07/03 10:01:30;;;;;;;;;;;;;;;;;;4869187;29;19946;-91
2023/07/03 10:07:20;;;;;;;;;;;;;;;;;;4896617;29;19935;-89
2023/07/03 10:09:57;;;;;;;;;;;;;;;;;;4873604;29;20635;-90
2023/07/03 10:12:38;;;;;;;;;;;;;;;;;;4881267;29;19942;-89
2023/07/03 10:15:17;;;;;;;;;;;;;;;;;;4888906;29;20635;-89
2023/07/03 10:17:48;;;;;;;;;;;;;;;;;;4892020;29;19935;-88
2023/07/03 10:20:41;;;;;;;;;;;;;;;;;;4899036;29;19959;-92
2023/07/03 10:23:54;;;;;;;;;;;;;;;;;;4897290;29;19942;-90
2023/07/03 10:29:25;;;;;;;;;;;;;;;;;;4874269;29;19957;-93
2023/07/03 10:32:00;;;;;;;;;;;;;;;;;;4936031;23;19934;-83
2023/07/03 10:34:28;;;;;;;;;;;;;;;;;;4916077;28;19939;-87
2023/07/03 10:36:56;;;;;;;;;;;;;;;;;;4915967;28;19942;-86
2023/07/03 10:39:23;;;;;;;;;;;;;;;;;;4917266;28;20867;-85
2023/07/03 10:41:51;;;;;;;;;;;;;;;;;;4907417;28;19930;-87
2023/07/03 10:44:21;;;;;;;;;;;;;;;;;;4921085;28;20838;-86
2023/07/03 10:46:53;;;;;;;;;;;;;;;;;;4908213;29;20648;-83
2023/07/03 10:49:21;;;;;;;;;;;;;;;;;;4919675;28;19926;-84
2023/07/03 10:51:55;;;;;;;;;;;;;;;;;;4921511;28;19942;-86
2023/07/03 10:54:22;;;;;;;;;;;;;;;;;;4904247;28;19935;-84
2023/07/03 10:56:55;;;;;;;;;;;;;;;;;;4917974;28;19935;-87
2023/07/03 10:59:23;;;;;;;;;;;;;;;;;;4915225;28;20415;-86
2023/07/03 11:01:55;;;;;;;;;;;;;;;;;;4914530;28;20319;-84
2023/07/03 11:04:23;;;;;;;;;;;;;;;;;;4934692;28;20402;-84
2023/07/03 11:06:51;;;;;;;;;;;;;;;;;;4917906;28;20633;-84
2023/07/03 11:09:19;;;;;;;;;;;;;;;;;;4932855;28;19934;-84
2023/07/03 11:11:46;;;;;;;;;;;;;;;;;;4943570;28;21194;-85
2023/07/03 11:14:19;;;;;;;;;;;;;;;;;;4935829;28;20414;-83
2023/07/03 11:16:51;;;;;;;;;;;;;;;;;;4928400;28;19934;-82
2023/07/03 11:19:19;;;;;;;;;;;;;;;;;;4915159;28;19953;-83
2023/07/03 11:21:47;;;;;;;;;;;;;;;;;;4936547;28;19933;-85
2023/07/03 11:24:15;;;;;;;;;;;;;;;;;;4931283;28;19934;-82
2023/07/03 11:26:43;;;;;;;;;;;;;;;;;;4929528;28;19930;-82
2023/07/03 11:29:13;;;;;;;;;;;;;;;;;;4911712;28;20251;-83
2023/07/03 11:31:42;;;;;;;;;;;;;;;;;;4936730;28;19934;-83
2023/07/03 11:34:15;;;;;;;;;;;;;;;;;;4933143;28;19934;-85
2023/07/03 11:36:43;;;;;;;;;;;;;;;;;;4926889;28;19930;-85
2023/07/03 11:39:11;;;;;;;;;;;;;;;;;;4913785;28;19934;-84
2023/07/03 11:41:38;;;;;;;;;;;;;;;;;;4928372;28;19933;-84
2023/07/03 11:44:06;;;;;;;;;;;;;;;;;;4936079;28;19934;-85
2023/07/03 11:46:33;;;;;;;;;;;;;;;;;;4919819;28;19934;-86
2023/07/03 11:49:01;;;;;;;;;;;;;;;;;;4922162;28;19934;-86
2023/07/03 11:51:28;;;;;;;;;;;;;;;;;;4945015;28;19934;-83
2023/07/03 11:53:57;;;;;;;;;;;;;;;;;;4922985;28;19935;-87
2023/07/03 11:56:24;;;;;;;;;;;;;;;;;;4922465;28;20673;-87
2023/07/03 11:58:52;;;;;;;;;;;;;;;;;;4916304;28;19945;-87
2023/07/03 12:01:22;;;;;;;;;;;;;;;;;;4939480;28;20416;-88
2023/07/03 12:03:49;;;;;;;;;;;;;;;;;;4943297;28;19934;-88
2023/07/03 12:06:17;;;;;;;;;;;;;;;;;;4931684;28;19935;-88
2023/07/03 12:08:45;;;;;;;;;;;;;;;;;;4918824;28;19957;-89
2023/07/03 12:11:20;;;;;;;;;;;;;;;;;;4934300;28;19934;-89
2023/07/03 12:13:48;;;;;;;;;;;;;;;;;;4934754;28;19941;-83
2023/07/03 12:16:16;;;;;;;;;;;;;;;;;;4920916;28;19938;-87
2023/07/03 12:18:49;;;;;;;;;;;;;;;;;;4937711;28;19934;-83
2023/07/03 12:21:16;;;;;;;;;;;;;;;;;;4940562;28;19938;-86
2023/07/03 12:23:44;;;;;;;;;;;;;;;;;;4935514;28;19960;-86
2023/07/03 12:26:13;;;;;;;;;;;;;;;;;;4929858;28;19957;-85
2023/07/03 12:28:41;;;;;;;;;;;;;;;;;;4928368;28;19942;-83
2023/07/03 12:31:08;;;;;;;;;;;;;;;;;;4932044;28;19934;-84
2023/07/03 12:33:36;;;;;;;;;;;;;;;;;;4940643;28;19930;-85
2023/07/03 12:36:09;;;;;;;;;;;;;;;;;;4935045;28;19940;-83
2023/07/03 12:38:36;;;;;;;;;;;;;;;;;;4919101;28;20560;-86
2023/07/03 12:41:04;;;;;;;;;;;;;;;;;;4935673;28;20621;-82
2023/07/03 12:43:32;;;;;;;;;;;;;;;;;;4937829;28;19945;-84
2023/07/03 12:46:04;;;;;;;;;;;;;;;;;;4936914;28;19934;-86
2023/07/03 12:48:32;;;;;;;;;;;;;;;;;;4945696;28;19953;-88
2023/07/03 12:50:59;;;;;;;;;;;;;;;;;;4944628;28;19954;-87
2023/07/03 12:53:29;;;;;;;;;;;;;;;;;;4946248;28;20398;-87
2023/07/03 12:55:57;;;;;;;;;;;;;;;;;;4950164;28;21491;-88
2023/07/03 12:58:24;;;;;;;;;;;;;;;;;;4928884;28;19934;-86
2023/07/03 13:00:52;;;;;;;;;;;;;;;;;;4900293;28;19934;-88
2023/07/03 13:03:20;;;;;;;;;;;;;;;;;;4939414;28;19944;-87
2023/07/03 13:05:47;;;;;;;;;;;;;;;;;;4926313;28;19934;-87
2023/07/03 13:08:15;;;;;;;;;;;;;;;;;;4925722;28;19934;-91
2023/07/03 13:10:43;;;;;;;;;;;;;;;;;;4940799;28;19935;-87
2023/07/03 13:13:10;;;;;;;;;;;;;;;;;;4946959;28;19941;-87
2023/07/03 13:15:38;;;;;;;;;;;;;;;;;;4943904;28;19933;-85
2023/07/03 13:18:06;;;;;;;;;;;;;;;;;;4926997;28;19941;-89
2023/07/03 13:20:33;;;;;;;;;;;;;;;;;;4944019;28;19935;-87
2023/07/03 13:23:01;;;;;;;;;;;;;;;;;;4922521;28;19941;-87
2023/07/03 13:25:28;;;;;;;;;;;;;;;;;;4940313;28;19938;-88
2023/07/03 13:27:56;;;;;;;;;;;;;;;;;;4930123;28;20005;-88
2023/07/03 13:30:23;;;;;;;;;;;;;;;;;;4944855;28;19934;-87
2023/07/03 13:32:51;;;;;;;;;;;;;;;;;;4927462;28;19941;-86
2023/07/03 13:35:19;;;;;;;;;;;;;;;;;;4924204;28;19934;-88
2023/07/03 13:37:46;;;;;;;;;;;;;;;;;;4928186;28;19930;-90
2023/07/03 13:40:14;;;;;;;;;;;;;;;;;;4932496;28;19930;-88
2023/07/03 13:42:41;;;;;;;;;;;;;;;;;;4943202;28;19934;-89
2023/07/03 13:45:09;;;;;;;;;;;;;;;;;;4938558;28;19945;-89
2023/07/03 13:47:37;;;;;;;;;;;;;;;;;;4928104;28;21483;-88
2023/07/03 13:50:04;;;;;;;;;;;;;;;;;;4926270;28;19934;-87
2023/07/03 13:52:37;;;;;;;;;;;;;;;;;;4926693;28;19945;-91
2023/07/03 13:55:04;;;;;;;;;;;;;;;;;;4920386;28;19934;-83
2023/07/03 13:57:32;;;;;;;;;;;;;;;;;;4935854;28;19945;-84
2023/07/03 14:00:00;;;;;;;;;;;;;;;;;;4899469;28;19934;-87
2023/07/03 14:02:36;;;;;;;;;;;;;;;;;;4949382;28;19935;-85
2023/07/03 14:05:03;;;;;;;;;;;;;;;;;;4931568;28;19930;-87
2023/07/03 14:07:31;;;;;;;;;;;;;;;;;;4948644;28;19934;-88
2023/07/03 14:09:59;;;;;;;;;;;;;;;;;;4920752;28;19941;-88
2023/07/03 14:12:26;;;;;;;;;;;;;;;;;;4939496;28;20559;-86
2023/07/03 14:14:54;;;;;;;;;;;;;;;;;;4939148;28;19977;-85
2023/07/03 14:17:26;;;;;;;;;;;;;;;;;;4934057;28;19934;-84
2023/07/03 14:19:54;;;;;;;;;;;;;;;;;;4934264;28;19935;-83
2023/07/03 14:22:26;;;;;;;;;;;;;;;;;;4937458;28;19934;-84
2023/07/03 14:24:54;;;;;;;;;;;;;;;;;;4921508;28;19929;-85
2023/07/03 14:27:22;;;;;;;;;;;;;;;;;;4935100;28;19953;-83
2023/07/03 14:29:49;;;;;;;;;;;;;;;;;;4928494;28;20402;-84
2023/07/03 14:32:17;;;;;;;;;;;;;;;;;;4937754;28;20821;-84
2023/07/03 14:34:50;;;;;;;;;;;;;;;;;;4914426;28;19935;-84
2023/07/03 14:37:17;;;;;;;;;;;;;;;;;;4914121;28;19934;-83
2023/07/03 14:39:45;;;;;;;;;;;;;;;;;;4916588;28;19941;-85
2023/07/03 14:42:18;;;;;;;;;;;;;;;;;;4915863;28;20282;-84
2023/07/03 14:44:45;;;;;;;;;;;;;;;;;;4938388;28;19935;-84
2023/07/03 14:47:18;;;;;;;;;;;;;;;;;;4933536;28;19926;-83
2023/07/03 14:49:46;;;;;;;;;;;;;;;;;;4922573;28;19931;-83
2023/07/03 14:52:19;;;;;;;;;;;;;;;;;;4929150;28;19934;-84
2023/07/03 14:54:47;;;;;;;;;;;;;;;;;;4933024;28;19938;-85
2023/07/03 14:57:14;;;;;;;;;;;;;;;;;;4915053;28;19953;-84
2023/07/03 14:59:42;;;;;;;;;;;;;;;;;;4895063;28;19934;-86
2023/07/03 15:02:09;;;;;;;;;;;;;;;;;;4928782;28;19934;-84
2023/07/03 15:04:42;;;;;;;;;;;;;;;;;;4933466;28;19945;-83
2023/07/03 15:07:10;;;;;;;;;;;;;;;;;;4918933;28;19941;-84
2023/07/03 15:09:37;;;;;;;;;;;;;;;;;;4932833;28;19934;-84
2023/07/03 15:12:10;;;;;;;;;;;;;;;;;;4938050;28;19934;-84
2023/07/03 15:14:37;;;;;;;;;;;;;;;;;;4934076;28;20310;-84
2023/07/03 15:17:05;;;;;;;;;;;;;;;;;;4920698;28;19934;-84
2023/07/03 15:19:38;;;;;;;;;;;;;;;;;;4937915;28;20323;-83
2023/07/03 15:22:05;;;;;;;;;;;;;;;;;;4936059;28;20598;-84
2023/07/03 15:24:33;;;;;;;;;;;;;;;;;;4916177;28;20551;-84
2023/07/03 15:27:06;;;;;;;;;;;;;;;;;;4933148;28;19941;-83
2023/07/03 15:29:33;;;;;;;;;;;;;;;;;;4916755;28;19945;-84
2023/07/03 15:32:01;;;;;;;;;;;;;;;;;;4926397;28;19934;-84
2023/07/03 15:34:33;;;;;;;;;;;;;;;;;;4938418;28;20456;-83
2023/07/03 15:37:01;;;;;;;;;;;;;;;;;;4942670;28;20447;-84
2023/07/03 15:39:29;;;;;;;;;;;;;;;;;;4935086;28;19934;-84
2023/07/03 15:41:56;;;;;;;;;;;;;;;;;;4919716;28;19934;-83
2023/07/03 15:44:24;;;;;;;;;;;;;;;;;;4915240;28;19934;-83
2023/07/03 15:46:51;;;;;;;;;;;;;;;;;;4918231;28;19941;-84
2023/07/03 15:49:19;;;;;;;;;;;;;;;;;;4922976;28;20303;-83
2023/07/03 15:51:47;;;;;;;;;;;;;;;;;;4936257;28;19934;-84
2023/07/03 15:54:14;;;;;;;;;;;;;;;;;;4932141;28;19935;-85
2023/07/03 15:56:42;;;;;;;;;;;;;;;;;;4940823;28;19934;-88
2023/07/03 15:59:09;;;;;;;;;;;;;;;;;;4917122;28;21388;-84
2023/07/03 16:01:37;;;;;;;;;;;;;;;;;;4935542;28;19941;-86
2023/07/03 16:04:05;;;;;;;;;;;;;;;;;;4919398;28;19941;-85
2023/07/03 16:06:37;;;;;;;;;;;;;;;;;;4926803;28;19940;-85
2023/07/03 16:09:05;;;;;;;;;;;;;;;;;;4944896;28;19957;-84
2023/07/03 16:11:35;;;;;;;;;;;;;;;;;;4928763;28;19934;-86
2023/07/03 16:14:03;;;;;;;;;;;;;;;;;;4923671;28;20692;-86
2023/07/03 16:16:30;;;;;;;;;;;;;;;;;;4939141;28;19934;-82
2023/07/03 16:19:03;;;;;;;;;;;;;;;;;;4922081;28;19942;-83
2023/07/03 16:21:33;;;;;;;;;;;;;;;;;;4917529;28;19934;-82
2023/07/03 16:24:00;;;;;;;;;;;;;;;;;;4936374;28;19934;-84
2023/07/03 16:26:28;;;;;;;;;;;;;;;;;;4932569;28;19934;-83
2023/07/03 16:28:55;;;;;;;;;;;;;;;;;;4942324;28;21378;-83
2023/07/03 16:31:23;;;;;;;;;;;;;;;;;;4942325;28;19934;-82
2023/07/03 16:33:51;;;;;;;;;;;;;;;;;;4932154;28;19945;-83
2023/07/03 16:36:18;;;;;;;;;;;;;;;;;;4944745;28;19935;-82
2023/07/03 16:38:51;;;;;;;;;;;;;;;;;;4948103;28;19934;-85
2023/07/03 16:41:23;;;;;;;;;;;;;;;;;;4938794;28;20574;-84
2023/07/03 16:43:56;;;;;;;;;;;;;;;;;;4944659;28;19934;-83
2023/07/03 16:46:24;;;;;;;;;;;;;;;;;;4923905;28;19935;-83
2023/07/03 16:48:52;;;;;;;;;;;;;;;;;;4937371;28;20429;-83
2023/07/03 16:51:20;;;;;;;;;;;;;;;;;;4927159;28;19941;-85
2023/07/03 16:53:47;;;;;;;;;;;;;;;;;;4919987;28;19930;-84
2023/07/03 16:56:15;;;;;;;;;;;;;;;;;;4930265;28;19941;-86
2023/07/03 16:58:43;;;;;;;;;;;;;;;;;;4941652;28;20689;-88
2023/07/03 17:01:10;;;;;;;;;;;;;;;;;;4897076;28;20415;-84
2023/07/03 17:03:38;;;;;;;;;;;;;;;;;;4928168;28;19934;-88
2023/07/03 17:06:05;;;;;;;;;;;;;;;;;;4944794;28;19941;-88
2023/07/03 17:08:33;;;;;;;;;;;;;;;;;;4928865;28;19934;-82
2023/07/03 17:11:01;;;;;;;;;;;;;;;;;;4942779;28;19942;-85
2023/07/03 17:13:29;;;;;;;;;;;;;;;;;;4944865;28;19957;-86
2023/07/03 17:15:57;;;;;;;;;;;;;;;;;;4928226;28;19934;-81
2023/07/03 17:18:24;;;;;;;;;;;;;;;;;;4934455;28;19934;-84
2023/07/03 17:20:52;;;;;;;;;;;;;;;;;;4922484;28;20622;-84
2023/07/03 17:23:20;;;;;;;;;;;;;;;;;;4925706;28;19934;-84
2023/07/03 17:25:48;;;;;;;;;;;;;;;;;;4920723;28;19934;-85
2023/07/03 17:28:16;;;;;;;;;;;;;;;;;;4919555;28;19941;-85
2023/07/03 17:30:44;;;;;;;;;;;;;;;;;;4925479;28;19930;-89
2023/07/03 17:33:11;;;;;;;;;;;;;;;;;;4943251;28;19941;-87
2023/07/03 17:35:39;;;;;;;;;;;;;;;;;;4938634;28;19934;-89
2023/07/03 17:38:08;;;;;;;;;;;;;;;;;;4942954;28;19930;-89
2023/07/03 17:40:35;;;;;;;;;;;;;;;;;;4947216;28;19934;-86
2023/07/03 17:43:03;;;;;;;;;;;;;;;;;;4922940;28;19941;-89
2023/07/03 17:45:31;;;;;;;;;;;;;;;;;;4921902;28;20383;-82
2023/07/03 17:47:58;;;;;;;;;;;;;;;;;;4939099;28;19926;-88
2023/07/03 17:50:27;;;;;;;;;;;;;;;;;;4949337;28;20242;-89
2023/07/03 17:52:54;;;;;;;;;;;;;;;;;;4944213;28;19934;-88
2023/07/03 17:55:22;;;;;;;;;;;;;;;;;;4947187;28;20422;-88
2023/07/03 17:57:49;;;;;;;;;;;;;;;;;;4937653;28;19930;-88
2023/07/03 18:00:17;;;;;;;;;;;;;;;;;;4901527;28;19934;-88
2023/07/03 18:02:45;;;;;;;;;;;;;;;;;;4925406;28;19941;-89
2023/07/03 18:05:12;;;;;;;;;;;;;;;;;;4944371;28;19945;-87
2023/07/03 18:07:40;;;;;;;;;;;;;;;;;;4928185;28;20686;-87
2023/07/03 18:10:08;;;;;;;;;;;;;;;;;;4927352;28;19934;-87
2023/07/03 18:12:37;;;;;;;;;;;;;;;;;;4944191;28;19938;-87
2023/07/03 18:15:06;;;;;;;;;;;;;;;;;;4925875;28;19934;-87
2023/07/03 18:17:33;;;;;;;;;;;;;;;;;;4936116;28;19934;-87
2023/07/03 18:20:03;;;;;;;;;;;;;;;;;;4923968;28;21560;-89
2023/07/03 18:22:31;;;;;;;;;;;;;;;;;;4942326;28;19926;-88
2023/07/03 18:25:00;;;;;;;;;;;;;;;;;;4925573;28;19997;-89
2023/07/03 18:27:28;;;;;;;;;;;;;;;;;;4938089;28;19926;-87
2023/07/03 18:29:56;;;;;;;;;;;;;;;;;;4922871;28;19926;-87
2023/07/03 18:32:24;;;;;;;;;;;;;;;;;;4942162;28;19957;-87
2023/07/03 18:34:52;;;;;;;;;;;;;;;;;;4930064;28;20322;-86
2023/07/03 18:37:26;;;;;;;;;;;;;;;;;;4933028;28;19933;-86
2023/07/03 18:39:53;;;;;;;;;;;;;;;;;;4937754;28;19934;-87
2023/07/03 18:42:21;;;;;;;;;;;;;;;;;;4945045;28;19941;-86
2023/07/03 18:44:49;;;;;;;;;;;;;;;;;;4924952;28;19934;-86
2023/07/03 18:47:16;;;;;;;;;;;;;;;;;;4924045;28;21245;-86
2023/07/03 18:49:49;;;;;;;;;;;;;;;;;;4940570;28;19945;-85
2023/07/03 18:52:16;;;;;;;;;;;;;;;;;;4940951;28;19935;-86
2023/07/03 18:54:44;;;;;;;;;;;;;;;;;;4924882;28;19934;-87
2023/07/03 18:57:12;;;;;;;;;;;;;;;;;;4932233;28;19930;-86
2023/07/03 18:59:39;;;;;;;;;;;;;;;;;;4904619;28;19946;-86
2023/07/03 19:02:14;;;;;;;;;;;;;;;;;;4929883;28;20417;-87
2023/07/03 19:04:41;;;;;;;;;;;;;;;;;;4936830;28;20318;-87
2023/07/03 19:07:09;;;;;;;;;;;;;;;;;;4937776;28;19934;-87
2023/07/03 19:09:36;;;;;;;;;;;;;;;;;;4926109;28;20656;-87
2023/07/03 19:12:04;;;;;;;;;;;;;;;;;;4946601;28;19942;-87
2023/07/03 19:14:32;;;;;;;;;;;;;;;;;;4923531;28;19957;-87
2023/07/03 19:16:59;;;;;;;;;;;;;;;;;;4946519;28;20328;-87
2023/07/03 19:19:27;;;;;;;;;;;;;;;;;;4929321;28;19931;-86
2023/07/03 19:21:55;;;;;;;;;;;;;;;;;;4919191;28;19941;-87
2023/07/03 19:24:22;;;;;;;;;;;;;;;;;;4929014;28;20754;-87
2023/07/03 19:26:55;;;;;;;;;;;;;;;;;;4922124;28;19934;-86
2023/07/03 19:29:23;;;;;;;;;;;;;;;;;;4928611;28;21898;-87
2023/07/03 19:31:51;;;;;;;;;;;;;;;;;;4941586;28;19931;-87
2023/07/03 19:34:19;;;;;;;;;;;;;;;;;;4921195;28;20626;-87
2023/07/03 19:36:46;;;;;;;;;;;;;;;;;;4924481;28;19950;-87